createdAt,value
2018-03-14T00:01:02.051Z,17.73
2018-03-14T00:03:29.681Z,17.40
2018-03-14T00:05:57.424Z,13.83
2018-03-14T00:08:25.085Z,11.50
2018-03-14T00:10:52.741Z,19.30
2018-03-14T00:13:20.360Z,20.33
2018-03-14T00:15:48.021Z,21.20
2018-03-14T00:18:15.644Z,16.77
2018-03-14T00:20:43.321Z,22.70
2018-03-14T00:23:10.971Z,23.77
2018-03-14T00:25:38.601Z,17.90
2018-03-14T00:28:06.257Z,23.60
2018-03-14T00:30:33.974Z,24.57
2018-03-14T00:33:01.721Z,22.03
2018-03-14T00:35:29.374Z,20.33
2018-03-14T00:37:57.033Z,20.67
2018-03-14T00:40:24.713Z,31.20
2018-03-14T00:42:52.477Z,17.97
2018-03-14T00:45:20.146Z,16.30
2018-03-14T00:47:47.777Z,20.57
2018-03-14T00:50:15.464Z,20.33
2018-03-14T00:52:43.121Z,18.67
2018-03-14T00:55:10.789Z,17.13
2018-03-14T00:57:38.548Z,22.10
2018-03-14T01:00:06.212Z,20.20
2018-03-14T01:02:33.880Z,15.00
2018-03-14T01:05:01.540Z,17.23
2018-03-14T01:07:29.200Z,16.60
2018-03-14T01:09:56.968Z,15.97
2018-03-14T01:12:24.595Z,20.83
2018-03-14T01:14:52.260Z,18.20
2018-03-14T01:17:19.896Z,22.80
2018-03-14T01:19:47.551Z,23.30
2018-03-14T01:22:15.279Z,21.07
2018-03-14T01:24:43.046Z,26.27
2018-03-14T01:27:10.680Z,21.37
2018-03-14T01:29:38.341Z,26.67
2018-03-14T01:32:06.033Z,31.67
2018-03-14T01:34:33.801Z,23.37
2018-03-14T01:37:01.464Z,28.30
2018-03-14T01:39:29.126Z,19.50
2018-03-14T01:41:56.760Z,25.97
2018-03-14T01:44:24.823Z,20.60
2018-03-14T01:46:52.477Z,23.57
2018-03-14T01:49:20.192Z,20.10
2018-03-14T01:51:47.855Z,22.73
2018-03-14T01:54:15.493Z,26.57
2018-03-14T01:56:43.175Z,24.27
2018-03-14T01:59:10.840Z,19.53
2018-03-14T02:01:38.504Z,31.33
2018-03-14T02:04:06.132Z,23.23
2018-03-14T02:06:33.796Z,20.70
2018-03-14T02:09:01.428Z,24.50
2018-03-14T02:11:29.104Z,20.60
2018-03-14T02:13:56.821Z,21.50
2018-03-14T02:16:24.448Z,29.03
2018-03-14T02:18:52.105Z,20.30
2018-03-14T02:21:19.749Z,20.93
2018-03-14T02:23:47.406Z,24.90
2018-03-14T02:26:15.128Z,20.93
2018-03-14T02:28:42.852Z,18.07
2018-03-14T02:31:10.476Z,25.47
2018-03-14T02:33:38.212Z,29.60
2018-03-14T02:36:05.843Z,23.53
2018-03-14T02:38:33.508Z,24.07
2018-03-14T02:41:01.152Z,19.87
2018-03-14T02:43:28.885Z,19.70
2018-03-14T02:45:56.476Z,18.80
2018-03-14T02:48:24.089Z,25.73
2018-03-14T02:50:51.751Z,33.10
2018-03-14T02:53:19.932Z,27.50
2018-03-14T02:55:47.564Z,34.57
2018-03-14T02:58:15.177Z,25.53
2018-03-14T03:00:42.817Z,18.93
2018-03-14T03:03:10.427Z,12.87
2018-03-14T03:05:38.061Z,23.57
2018-03-14T03:08:05.698Z,19.37
2018-03-14T03:10:33.335Z,10.97
2018-03-14T03:13:00.945Z,18.53
2018-03-14T03:15:28.579Z,16.33
2018-03-14T03:17:56.201Z,20.93
2018-03-14T03:20:23.858Z,23.63
2018-03-14T03:22:51.472Z,24.27
2018-03-14T03:25:19.140Z,19.67
2018-03-14T03:27:46.777Z,21.27
2018-03-14T03:30:14.455Z,20.43
2018-03-14T03:32:42.088Z,29.53
2018-03-14T03:35:09.788Z,18.43
2018-03-14T03:37:37.424Z,30.47
2018-03-14T03:40:05.116Z,24.07
2018-03-14T03:42:32.752Z,31.53
2018-03-14T03:45:00.364Z,32.73
2018-03-14T03:47:28.005Z,23.90
2018-03-14T03:49:55.656Z,23.60
2018-03-14T03:52:23.297Z,25.80
2018-03-14T03:54:50.984Z,26.37
2018-03-14T03:57:18.621Z,21.60
2018-03-14T03:59:46.273Z,23.37
2018-03-14T04:02:13.977Z,18.63
2018-03-14T04:04:41.592Z,16.43
2018-03-14T04:07:09.205Z,24.13
2018-03-14T04:09:36.847Z,21.10
2018-03-14T04:12:04.461Z,19.80
2018-03-14T04:14:32.101Z,17.83
2018-03-14T04:16:59.717Z,27.33
2018-03-14T04:19:27.411Z,23.80
2018-03-14T04:21:55.025Z,22.67
2018-03-14T04:24:22.740Z,23.67
2018-03-14T04:26:50.356Z,18.63
2018-03-14T04:29:18.064Z,21.33
2018-03-14T04:31:45.677Z,20.93
2018-03-14T04:34:13.290Z,14.10
2018-03-14T04:36:40.924Z,21.63
2018-03-14T04:39:08.532Z,20.10
2018-03-14T04:41:36.169Z,20.43
2018-03-14T04:44:03.785Z,25.93
2018-03-14T04:46:31.421Z,25.47
2018-03-14T04:48:59.028Z,29.10
2018-03-14T04:51:26.669Z,24.63
2018-03-14T04:53:54.384Z,26.90
2018-03-14T04:56:22.045Z,22.63
2018-03-14T04:58:49.699Z,21.23
2018-03-14T05:01:17.348Z,22.20
2018-03-14T05:03:45.032Z,16.70
2018-03-14T05:06:12.675Z,22.70
2018-03-14T05:08:40.292Z,25.87
2018-03-14T05:11:07.905Z,24.80
2018-03-14T05:13:35.545Z,25.37
2018-03-14T05:16:03.160Z,21.43
2018-03-14T05:18:30.800Z,28.30
2018-03-14T05:20:58.408Z,23.77
2018-03-14T05:23:26.040Z,26.90
2018-03-14T05:25:53.652Z,27.27
2018-03-14T05:28:21.352Z,28.80
2018-03-14T05:30:48.976Z,26.40
2018-03-14T05:33:16.677Z,25.30
2018-03-14T05:35:44.293Z,29.00
2018-03-14T05:38:11.929Z,25.87
2018-03-14T05:40:39.535Z,29.07
2018-03-14T05:43:07.169Z,31.97
2018-03-14T05:45:34.781Z,27.07
2018-03-14T05:48:02.432Z,31.17
2018-03-14T05:50:30.045Z,25.43
2018-03-14T05:52:57.677Z,27.50
2018-03-14T05:55:25.602Z,26.10
2018-03-14T05:57:53.212Z,24.57
2018-03-14T06:00:20.857Z,23.60
2018-03-14T06:02:48.469Z,24.97
2018-03-14T06:05:16.104Z,21.83
2018-03-14T06:07:43.712Z,27.77
2018-03-14T06:10:11.345Z,25.20
2018-03-14T06:12:38.963Z,27.23
2018-03-14T06:15:06.628Z,29.20
2018-03-14T06:17:34.292Z,24.13
2018-03-14T06:20:01.958Z,25.07
2018-03-14T06:22:29.572Z,24.97
2018-03-14T06:24:57.190Z,24.17
2018-03-14T06:27:24.835Z,22.97
2018-03-14T06:29:52.481Z,20.57
2018-03-14T06:32:20.177Z,25.13
2018-03-14T06:34:47.842Z,19.97
2018-03-14T06:37:15.482Z,32.10
2018-03-14T06:39:43.094Z,19.20
2018-03-14T06:42:10.732Z,25.10
2018-03-14T06:44:38.340Z,32.33
2018-03-14T06:47:05.972Z,24.93
2018-03-14T06:49:33.589Z,23.97
2018-03-14T06:52:01.221Z,20.50
2018-03-14T06:54:28.836Z,24.57
2018-03-14T06:56:56.486Z,18.53
2018-03-14T06:59:35.936Z,23.50
2018-03-14T07:02:15.461Z,18.57
2018-03-14T07:05:06.732Z,21.37
2018-03-14T07:07:34.368Z,16.93
2018-03-14T07:10:01.977Z,20.60
2018-03-14T07:12:29.612Z,11.77
2018-03-14T07:14:57.225Z,20.87
2018-03-14T07:17:24.922Z,17.00
2018-03-14T07:19:52.517Z,26.83
2018-03-14T07:22:20.228Z,19.67
2018-03-14T07:24:47.865Z,26.10
2018-03-14T07:27:15.553Z,23.20
2018-03-14T07:29:43.206Z,26.10
2018-03-14T07:32:10.822Z,23.43
2018-03-14T07:34:38.453Z,24.33
2018-03-14T07:37:06.101Z,26.70
2018-03-14T07:39:33.760Z,27.57
2018-03-14T07:42:01.431Z,20.67
2018-03-14T07:44:29.090Z,28.30
2018-03-14T07:46:56.754Z,28.70
2018-03-14T07:49:24.421Z,28.80
2018-03-14T07:51:52.032Z,28.37
2018-03-14T07:54:19.744Z,20.77
2018-03-14T07:56:47.360Z,24.27
2018-03-14T07:59:15.011Z,21.60
2018-03-14T08:01:42.625Z,21.67
2018-03-14T08:04:10.238Z,27.70
2018-03-14T08:06:37.877Z,24.03
2018-03-14T08:09:05.492Z,19.80
2018-03-14T08:11:33.180Z,19.33
2018-03-14T08:14:00.860Z,24.63
2018-03-14T08:16:28.501Z,16.47
2018-03-14T08:18:56.112Z,22.33
2018-03-14T08:21:23.756Z,19.20
2018-03-14T08:23:51.387Z,20.40
2018-03-14T08:26:19.029Z,16.07
2018-03-14T08:28:46.641Z,23.17
2018-03-14T08:31:14.278Z,22.17
2018-03-14T08:33:41.892Z,20.10
2018-03-14T08:36:09.508Z,21.50
2018-03-14T08:38:37.139Z,26.00
2018-03-14T08:41:04.755Z,24.13
2018-03-14T08:43:32.489Z,19.37
2018-03-14T08:46:00.144Z,19.83
2018-03-14T08:48:27.775Z,26.30
2018-03-14T08:50:55.384Z,21.70
2018-03-14T08:53:23.025Z,26.27
2018-03-14T08:55:50.689Z,21.40
2018-03-14T08:58:18.319Z,19.50
2018-03-14T09:00:46.018Z,22.00
2018-03-14T09:03:13.676Z,19.13
2018-03-14T09:05:41.292Z,21.37
2018-03-14T09:08:08.939Z,19.27
2018-03-14T09:10:36.567Z,17.00
2018-03-14T09:13:04.232Z,20.40
2018-03-14T09:15:31.897Z,19.63
2018-03-14T09:17:59.549Z,20.90
2018-03-14T09:20:27.224Z,19.20
2018-03-14T09:22:54.836Z,20.13
2018-03-14T09:25:22.550Z,17.27
2018-03-14T09:27:50.161Z,23.43
2018-03-14T09:30:17.800Z,40.37
2018-03-14T09:32:45.436Z,20.80
2018-03-14T09:35:13.072Z,19.07
2018-03-14T09:37:40.680Z,19.73
2018-03-14T09:40:08.413Z,17.67
2018-03-14T09:42:36.030Z,17.90
2018-03-14T09:45:04.667Z,23.47
2018-03-14T09:47:32.324Z,20.23
2018-03-14T09:49:59.961Z,18.97
2018-03-14T09:52:27.648Z,24.80
2018-03-14T09:54:55.276Z,20.43
2018-03-14T09:57:22.981Z,26.43
2018-03-14T09:59:50.634Z,19.50
2018-03-14T10:02:18.298Z,29.03
2018-03-14T10:04:45.973Z,35.67
2018-03-14T10:07:13.607Z,23.93
2018-03-14T10:09:41.216Z,24.00
2018-03-14T10:12:08.852Z,29.73
2018-03-14T10:14:36.520Z,29.20
2018-03-14T10:17:04.161Z,24.47
2018-03-14T10:19:31.846Z,25.67
2018-03-14T10:21:59.496Z,24.97
2018-03-14T10:24:27.121Z,36.83
2018-03-14T10:26:54.834Z,22.03
2018-03-14T10:29:22.448Z,33.90
2018-03-14T10:31:50.155Z,32.30
2018-03-14T10:34:17.824Z,42.70
2018-03-14T10:36:45.485Z,24.33
2018-03-14T10:39:13.098Z,27.93
2018-03-14T10:41:40.805Z,23.37
2018-03-14T10:44:08.412Z,26.13
2018-03-14T10:46:36.068Z,26.10
2018-03-14T10:49:03.689Z,27.10
2018-03-14T10:51:31.300Z,29.00
2018-03-14T10:53:58.936Z,28.87
2018-03-14T10:56:26.548Z,24.60
2018-03-14T10:58:54.240Z,22.00
2018-03-14T11:01:21.853Z,26.70
2018-03-14T11:03:49.497Z,29.77
2018-03-14T11:06:17.136Z,22.97
2018-03-14T11:08:46.433Z,23.00
2018-03-14T11:11:14.040Z,24.23
2018-03-14T11:13:41.679Z,25.07
2018-03-14T11:16:09.410Z,23.07
2018-03-14T11:18:37.049Z,28.70
2018-03-14T11:21:04.745Z,22.03
2018-03-14T11:23:32.401Z,24.60
2018-03-14T11:26:00.013Z,23.43
2018-03-14T11:28:27.692Z,23.93
2018-03-14T11:30:55.306Z,23.17
2018-03-14T11:33:22.921Z,23.80
2018-03-14T11:35:50.547Z,21.70
2018-03-14T11:38:18.180Z,31.77
2018-03-14T11:40:45.816Z,19.90
2018-03-14T11:43:13.428Z,25.50
2018-03-14T11:45:41.164Z,27.60
2018-03-14T11:48:08.833Z,23.37
2018-03-14T11:50:36.496Z,33.13
2018-03-14T11:53:04.108Z,29.47
2018-03-14T11:55:31.749Z,23.83
2018-03-14T11:57:59.376Z,28.03
2018-03-14T12:00:27.013Z,23.73
2018-03-14T12:02:54.632Z,25.63
2018-03-14T12:05:22.264Z,42.50
2018-03-14T12:07:49.937Z,31.70
2018-03-14T12:10:17.590Z,29.97
2018-03-14T12:12:45.248Z,24.17
2018-03-14T12:15:12.917Z,27.77
2018-03-14T12:17:40.552Z,32.13
2018-03-14T12:20:08.241Z,40.10
2018-03-14T12:22:35.906Z,28.47
2018-03-14T12:25:03.521Z,25.27
2018-03-14T12:27:31.157Z,26.07
2018-03-14T12:29:58.812Z,23.83
2018-03-14T12:32:26.649Z,23.63
2018-03-14T12:34:54.260Z,27.83
2018-03-14T12:37:21.974Z,27.63
2018-03-14T12:39:49.588Z,32.93
2018-03-14T12:42:17.223Z,31.93
2018-03-14T12:44:44.858Z,29.63
2018-03-14T12:47:12.549Z,24.60
2018-03-14T12:49:40.144Z,28.80
2018-03-14T12:52:07.801Z,24.87
2018-03-14T12:54:35.521Z,25.20
2018-03-14T12:57:03.132Z,32.43
2018-03-14T12:59:30.764Z,22.67
2018-03-14T13:01:58.385Z,32.93
2018-03-14T13:04:26.021Z,26.63
2018-03-14T13:06:53.732Z,28.60
2018-03-14T13:09:21.360Z,32.50
2018-03-14T13:11:49.001Z,28.13
2018-03-14T13:14:16.716Z,29.40
2018-03-14T13:16:44.384Z,25.57
2018-03-14T13:19:12.014Z,28.60
2018-03-14T13:21:39.624Z,28.80
2018-03-14T13:24:07.358Z,28.37
2018-03-14T13:26:34.972Z,33.50
2018-03-14T13:29:02.706Z,23.93
2018-03-14T13:31:30.359Z,34.17
2018-03-14T13:33:57.991Z,35.93
2018-03-14T13:36:25.605Z,24.80
2018-03-14T13:38:53.262Z,27.20
2018-03-14T13:41:20.912Z,23.70
2018-03-14T13:43:48.573Z,24.77
2018-03-14T13:46:16.212Z,29.20
2018-03-14T13:48:43.825Z,24.63
2018-03-14T13:51:11.467Z,26.67
2018-03-14T13:53:39.081Z,27.83
2018-03-14T13:56:06.789Z,41.27
2018-03-14T13:58:34.448Z,38.57
2018-03-14T14:01:02.108Z,36.70
2018-03-14T14:03:29.752Z,38.43
2018-03-14T14:05:57.385Z,28.90
2018-03-14T14:08:24.996Z,29.70
2018-03-14T14:10:52.629Z,27.90
2018-03-14T14:13:20.248Z,31.53
2018-03-14T14:15:47.980Z,29.10
2018-03-14T14:18:15.644Z,37.70
2018-03-14T14:20:43.252Z,28.70
2018-03-14T14:23:10.893Z,44.97
2018-03-14T14:25:38.508Z,25.80
2018-03-14T14:28:06.194Z,28.00
2018-03-14T14:30:33.880Z,35.73
2018-03-14T14:33:01.508Z,25.20
2018-03-14T14:35:29.180Z,25.93
2018-03-14T14:37:56.818Z,25.30
2018-03-14T14:40:24.513Z,26.67
2018-03-14T14:42:52.152Z,24.20
2018-03-14T14:45:19.833Z,22.57
2018-03-14T14:47:47.472Z,22.37
2018-03-14T14:50:15.758Z,30.10
2018-03-14T14:52:43.511Z,33.93
2018-03-14T14:55:11.133Z,29.57
2018-03-14T14:57:38.865Z,28.53
2018-03-14T15:00:06.476Z,32.97
2018-03-14T15:02:34.194Z,32.10
2018-03-14T15:05:01.801Z,12.50
2018-03-14T15:07:29.407Z,14.93
2018-03-14T15:09:57.037Z,9.93
2018-03-14T15:12:24.644Z,20.33
2018-03-14T15:14:52.397Z,13.70
2018-03-14T15:17:20.065Z,14.23
2018-03-14T15:19:47.730Z,11.20
2018-03-14T15:22:15.400Z,13.80
2018-03-14T15:24:43.253Z,7.20
2018-03-14T15:27:10.980Z,12.00
2018-03-14T15:29:38.609Z,7.73
2018-03-14T15:32:06.242Z,8.30
2018-03-14T15:34:34.045Z,6.83
2018-03-14T15:37:01.668Z,7.10
2018-03-14T15:39:29.311Z,11.40
2018-03-14T15:41:56.916Z,11.27
2018-03-14T15:44:24.561Z,6.40
2018-03-14T15:46:52.221Z,8.50
2018-03-14T15:49:19.894Z,10.20
2018-03-14T15:51:47.549Z,11.53
2018-03-14T15:54:15.157Z,9.80
2018-03-14T15:56:42.866Z,10.03
2018-03-14T15:59:10.537Z,8.43
2018-03-14T16:01:38.165Z,6.70
2018-03-14T16:04:05.775Z,5.03
2018-03-14T16:06:33.411Z,5.80
2018-03-14T16:09:01.018Z,6.37
2018-03-14T16:11:28.645Z,6.97
2018-03-14T16:13:56.248Z,5.40
2018-03-14T16:16:23.964Z,5.60
2018-03-14T16:18:51.564Z,5.53
2018-03-14T16:21:19.193Z,5.97
2018-03-14T16:23:46.803Z,6.33
2018-03-14T16:26:14.423Z,5.07
2018-03-14T16:28:42.076Z,7.00
2018-03-14T16:31:09.733Z,5.83
2018-03-14T16:33:37.345Z,8.20
2018-03-14T16:36:05.061Z,5.67
2018-03-14T16:38:32.689Z,7.13
2018-03-14T16:41:00.289Z,7.67
2018-03-14T16:43:27.917Z,6.80
2018-03-14T16:45:55.525Z,4.90
2018-03-14T16:48:23.155Z,6.43
2018-03-14T16:50:50.781Z,5.83
2018-03-14T16:53:18.413Z,5.10
2018-03-14T16:55:46.056Z,5.30
2018-03-14T16:58:13.726Z,9.50
2018-03-14T17:00:41.334Z,6.27
2018-03-14T17:03:08.961Z,5.47
2018-03-14T17:05:36.571Z,5.77
2018-03-14T17:08:04.268Z,7.77
2018-03-14T17:10:31.872Z,5.17
2018-03-14T17:12:59.496Z,4.77
2018-03-14T17:15:27.284Z,4.83
2018-03-14T17:17:54.914Z,5.87
2018-03-14T17:20:22.561Z,5.93
2018-03-14T17:22:50.252Z,11.43
2018-03-14T17:25:17.903Z,5.83
2018-03-14T17:27:45.530Z,7.10
2018-03-14T17:30:13.242Z,6.43
2018-03-14T17:32:40.908Z,6.93
2018-03-14T17:35:08.518Z,6.50
2018-03-14T17:37:36.176Z,6.40
2018-03-14T17:40:03.912Z,5.47
2018-03-14T17:42:31.551Z,6.30
2018-03-14T17:44:59.176Z,5.50
2018-03-14T17:47:26.776Z,5.93
2018-03-14T17:49:54.420Z,5.83
2018-03-14T17:52:22.028Z,8.50
2018-03-14T17:54:49.757Z,8.90
2018-03-14T17:57:17.408Z,5.77
2018-03-14T17:59:45.042Z,8.07
2018-03-14T18:02:12.743Z,5.93
2018-03-14T18:04:40.369Z,8.53
2018-03-14T18:07:07.977Z,6.83
2018-03-14T18:09:35.645Z,9.97
2018-03-14T18:12:03.297Z,8.97
2018-03-14T18:14:30.940Z,10.73
2018-03-14T18:16:58.584Z,8.40
2018-03-14T18:19:26.282Z,9.20
2018-03-14T18:21:54.238Z,8.10
2018-03-14T18:24:21.854Z,10.17
2018-03-14T18:26:49.484Z,11.30
2018-03-14T18:29:17.101Z,7.77
2018-03-14T18:31:45.007Z,9.07
2018-03-14T18:34:12.768Z,9.97
2018-03-14T18:36:40.441Z,10.27
2018-03-14T18:39:08.045Z,15.87
2018-03-14T18:41:35.760Z,14.33
2018-03-14T18:44:03.369Z,15.10
2018-03-14T18:46:31.001Z,12.20
2018-03-14T18:48:58.608Z,10.97
2018-03-14T18:51:26.236Z,17.47
2018-03-14T18:53:53.851Z,15.90
2018-03-14T18:56:21.536Z,12.97
2018-03-14T18:58:49.146Z,14.30
2018-03-14T19:01:16.798Z,14.50
2018-03-14T19:03:44.401Z,18.13
2018-03-14T19:06:12.081Z,11.67
2018-03-14T19:08:39.749Z,14.17
2018-03-14T19:11:07.409Z,11.97
2018-03-14T19:13:35.072Z,11.97
2018-03-14T19:16:02.685Z,15.63
2018-03-14T19:18:30.324Z,15.37
2018-03-14T19:20:57.961Z,18.40
2018-03-14T19:23:25.630Z,12.40
2018-03-14T19:25:53.300Z,12.60
2018-03-14T19:28:21.145Z,19.63
2018-03-14T19:30:48.781Z,11.83
2018-03-14T19:33:16.440Z,12.50
2018-03-14T19:35:44.109Z,14.83
2018-03-14T19:38:11.717Z,16.93
2018-03-14T19:40:39.370Z,18.90
2018-03-14T19:43:07.028Z,16.17
2018-03-14T19:45:34.690Z,14.37
2018-03-14T19:48:02.348Z,20.27
2018-03-14T19:50:30.028Z,17.20
2018-03-14T19:52:57.645Z,12.70
2018-03-14T19:55:25.341Z,20.73
2018-03-14T19:57:52.958Z,19.03
2018-03-14T20:00:20.594Z,10.63
2018-03-14T20:02:48.196Z,15.90
2018-03-14T20:05:15.889Z,15.43
2018-03-14T20:07:43.510Z,13.47
2018-03-14T20:10:11.145Z,17.23
2018-03-14T20:12:38.777Z,15.07
2018-03-14T20:15:06.546Z,19.63
2018-03-14T20:17:34.204Z,16.33
2018-03-14T20:20:01.814Z,17.43
2018-03-14T20:22:29.448Z,16.67
2018-03-14T20:24:57.060Z,17.37
2018-03-14T20:27:24.757Z,20.53
2018-03-14T20:29:52.368Z,17.00
2018-03-14T20:32:20.012Z,16.70
2018-03-14T20:34:47.620Z,15.80
2018-03-14T20:37:15.301Z,13.97
2018-03-14T20:39:42.922Z,15.90
2018-03-14T20:42:10.624Z,19.67
2018-03-14T20:44:38.236Z,18.07
2018-03-14T20:47:05.958Z,13.80
2018-03-14T20:49:33.621Z,17.63
2018-03-14T20:52:01.269Z,20.73
2018-03-14T20:54:28.944Z,19.77
2018-03-14T20:56:56.581Z,21.43
2018-03-14T20:59:24.203Z,24.90
2018-03-14T21:01:51.864Z,21.93
2018-03-14T21:04:19.501Z,23.17
2018-03-14T21:06:47.117Z,21.97
2018-03-14T21:09:14.744Z,20.40
2018-03-14T21:11:42.380Z,21.83
2018-03-14T21:14:10.045Z,18.13
2018-03-14T21:16:37.661Z,22.40
2018-03-14T21:19:05.297Z,20.40
2018-03-14T21:21:32.916Z,22.80
2018-03-14T21:24:00.554Z,21.90
2018-03-14T21:26:28.651Z,23.17
2018-03-14T21:28:56.325Z,24.30
2018-03-14T21:31:24.039Z,18.63
2018-03-14T21:33:51.652Z,28.50
2018-03-14T21:36:19.277Z,27.33
2018-03-14T21:38:47.265Z,25.60
2018-03-14T21:41:14.935Z,26.87
2018-03-14T21:43:42.557Z,22.47
2018-03-14T21:46:10.269Z,22.63
2018-03-14T21:48:37.900Z,25.03
2018-03-14T21:51:05.541Z,22.70
2018-03-14T21:53:33.251Z,21.33
2018-03-14T21:56:00.888Z,20.37
2018-03-14T21:58:28.501Z,21.83
2018-03-14T22:00:56.140Z,21.00
2018-03-14T22:03:23.756Z,19.10
2018-03-14T22:05:51.389Z,15.60
2018-03-14T22:08:19.033Z,17.13
2018-03-14T22:10:46.684Z,17.37
2018-03-14T22:13:14.315Z,17.10
2018-03-14T22:15:41.943Z,20.93
2018-03-14T22:18:09.556Z,23.60
2018-03-14T22:20:37.441Z,19.67
2018-03-14T22:23:05.052Z,18.20
2018-03-14T22:25:32.692Z,15.30
2018-03-14T22:28:00.332Z,21.80
2018-03-14T22:30:27.974Z,25.10
2018-03-14T22:32:55.597Z,27.90
2018-03-14T22:35:23.836Z,23.27
2018-03-14T22:37:51.488Z,18.20
2018-03-14T22:40:19.124Z,21.90
2018-03-14T22:42:46.744Z,28.67
2018-03-14T22:45:14.377Z,22.33
2018-03-14T22:47:42.047Z,16.10
2018-03-14T22:50:09.685Z,23.20
2018-03-14T22:52:37.348Z,28.80
2018-03-14T22:55:04.965Z,24.43
2018-03-14T22:57:32.688Z,27.67
2018-03-14T23:00:00.357Z,22.10
2018-03-14T23:02:28.008Z,25.83
2018-03-14T23:04:55.628Z,22.83
2018-03-14T23:07:23.290Z,25.33
2018-03-14T23:09:50.900Z,21.10
2018-03-14T23:12:18.568Z,23.40
2018-03-14T23:14:46.228Z,22.03
2018-03-14T23:17:13.836Z,23.80
2018-03-14T23:19:41.482Z,26.33
2018-03-14T23:22:09.097Z,32.33
2018-03-14T23:24:36.741Z,21.37
2018-03-14T23:27:04.436Z,21.40
2018-03-14T23:29:32.073Z,27.00
2018-03-14T23:31:59.767Z,22.20
2018-03-14T23:34:27.532Z,25.37
2018-03-14T23:36:55.196Z,32.50
2018-03-14T23:39:22.806Z,20.33
2018-03-14T23:41:50.440Z,19.67
2018-03-14T23:44:18.044Z,23.10
2018-03-14T23:46:45.745Z,21.57
2018-03-14T23:49:13.412Z,25.43
2018-03-14T23:51:41.049Z,38.47
2018-03-14T23:54:08.749Z,23.33
2018-03-14T23:56:36.460Z,22.30
2018-03-14T23:59:04.119Z,21.73
